sensor_id;sensor_type;location;lat;lon;timestamp;temperature;humidity
13856;DHT22;6998;53.608;9.958;2022-08-23T00:02:07;20.00;99.90
13856;DHT22;6998;53.608;9.958;2022-08-23T00:04:37;20.00;99.90
13856;DHT22;6998;53.608;9.958;2022-08-23T00:07:07;20.00;99.90
13856;DHT22;6998;53.608;9.958;2022-08-23T00:09:34;19.90;99.90
13856;DHT22;6998;53.608;9.958;2022-08-23T00:12:10;19.90;99.90
13856;DHT22;6998;53.608;9.958;2022-08-23T00:14:39;19.90;99.90
13856;DHT22;6998;53.608;9.958;2022-08-23T00:17:07;19.90;99.90
13856;DHT22;6998;53.608;9.958;2022-08-23T00:19:35;20.00;99.90
13856;DHT22;6998;53.608;9.958;2022-08-23T00:22:03;20.00;99.90
13856;DHT22;6998;53.608;9.958;2022-08-23T00:24:30;19.90;99.90
13856;DHT22;6998;53.608;9.958;2022-08-23T00:26:59;20.00;99.90
13856;DHT22;6998;53.608;9.958;2022-08-23T00:29:31;20.00;99.90
13856;DHT22;6998;53.608;9.958;2022-08-23T00:31:59;20.00;99.90
13856;DHT22;6998;53.608;9.958;2022-08-23T00:34:27;20.00;99.90
13856;DHT22;6998;53.608;9.958;2022-08-23T00:36:54;19.90;99.90
13856;DHT22;6998;53.608;9.958;2022-08-23T00:39:22;19.90;99.90
13856;DHT22;6998;53.608;9.958;2022-08-23T00:41:50;20.00;99.90
13856;DHT22;6998;53.608;9.958;2022-08-23T00:44:21;20.00;99.90
13856;DHT22;6998;53.608;9.958;2022-08-23T00:47:09;20.00;99.90
13856;DHT22;6998;53.608;9.958;2022-08-23T00:50:05;20.00;99.90
13856;DHT22;6998;53.608;9.958;2022-08-23T00:52:43;20.00;99.90
13856;DHT22;6998;53.608;9.958;2022-08-23T00:55:12;20.00;99.90
13856;DHT22;6998;53.608;9.958;2022-08-23T00:57:41;20.00;99.90
13856;DHT22;6998;53.608;9.958;2022-08-23T01:00:09;19.90;99.90
13856;DHT22;6998;53.608;9.958;2022-08-23T01:02:37;19.90;99.90
13856;DHT22;6998;53.608;9.958;2022-08-23T01:05:05;20.00;99.90
13856;DHT22;6998;53.608;9.958;2022-08-23T01:07:41;19.90;99.90
13856;DHT22;6998;53.608;9.958;2022-08-23T01:10:15;19.90;99.90
13856;DHT22;6998;53.608;9.958;2022-08-23T01:12:46;19.90;99.90
13856;DHT22;6998;53.608;9.958;2022-08-23T01:15:20;19.90;99.90
13856;DHT22;6998;53.608;9.958;2022-08-23T01:17:52;19.90;99.90
13856;DHT22;6998;53.608;9.958;2022-08-23T01:20:22;19.90;99.90
13856;DHT22;6998;53.608;9.958;2022-08-23T01:22:54;19.90;99.90
13856;DHT22;6998;53.608;9.958;2022-08-23T01:25:25;19.90;99.90
13856;DHT22;6998;53.608;9.958;2022-08-23T01:27:53;19.90;99.90
13856;DHT22;6998;53.608;9.958;2022-08-23T01:30:23;19.90;99.90
13856;DHT22;6998;53.608;9.958;2022-08-23T01:32:54;19.90;99.90
13856;DHT22;6998;53.608;9.958;2022-08-23T01:35:24;19.90;99.90
13856;DHT22;6998;53.608;9.958;2022-08-23T01:37:55;19.90;99.90
13856;DHT22;6998;53.608;9.958;2022-08-23T01:40:23;19.90;99.90
13856;DHT22;6998;53.608;9.958;2022-08-23T01:42:50;19.90;99.90
13856;DHT22;6998;53.608;9.958;2022-08-23T01:45:17;19.90;99.90
13856;DHT22;6998;53.608;9.958;2022-08-23T01:47:44;19.80;99.90
13856;DHT22;6998;53.608;9.958;2022-08-23T01:50:11;19.80;99.90
13856;DHT22;6998;53.608;9.958;2022-08-23T01:52:40;19.80;99.90
13856;DHT22;6998;53.608;9.958;2022-08-23T01:55:07;19.80;99.90
13856;DHT22;6998;53.608;9.958;2022-08-23T01:57:35;19.90;99.90
13856;DHT22;6998;53.608;9.958;2022-08-23T02:00:05;19.90;99.90
13856;DHT22;6998;53.608;9.958;2022-08-23T02:02:32;19.80;99.90
13856;DHT22;6998;53.608;9.958;2022-08-23T02:04:59;19.80;99.90
13856;DHT22;6998;53.608;9.958;2022-08-23T02:07:26;19.80;99.90
13856;DHT22;6998;53.608;9.958;2022-08-23T02:09:54;19.70;99.90
13856;DHT22;6998;53.608;9.958;2022-08-23T02:12:22;19.80;99.90
13856;DHT22;6998;53.608;9.958;2022-08-23T02:14:50;19.70;99.90
13856;DHT22;6998;53.608;9.958;2022-08-23T02:17:16;19.80;99.90
13856;DHT22;6998;53.608;9.958;2022-08-23T02:19:43;19.80;99.90
13856;DHT22;6998;53.608;9.958;2022-08-23T02:22:12;19.70;99.90
13856;DHT22;6998;53.608;9.958;2022-08-23T02:24:42;19.70;99.90
13856;DHT22;6998;53.608;9.958;2022-08-23T02:27:09;19.70;99.90
13856;DHT22;6998;53.608;9.958;2022-08-23T02:29:37;19.70;99.90
13856;DHT22;6998;53.608;9.958;2022-08-23T02:32:05;19.70;99.90
13856;DHT22;6998;53.608;9.958;2022-08-23T02:34:32;19.60;99.90
13856;DHT22;6998;53.608;9.958;2022-08-23T02:36:59;19.70;99.90
13856;DHT22;6998;53.608;9.958;2022-08-23T02:39:27;19.70;99.90
13856;DHT22;6998;53.608;9.958;2022-08-23T02:41:54;19.70;99.90
13856;DHT22;6998;53.608;9.958;2022-08-23T02:44:22;19.70;99.90
13856;DHT22;6998;53.608;9.958;2022-08-23T02:46:49;19.70;99.90
13856;DHT22;6998;53.608;9.958;2022-08-23T02:49:17;19.60;99.90
13856;DHT22;6998;53.608;9.958;2022-08-23T02:51:44;19.60;99.90
13856;DHT22;6998;53.608;9.958;2022-08-23T02:54:11;19.60;99.90
13856;DHT22;6998;53.608;9.958;2022-08-23T02:56:38;19.60;99.90
13856;DHT22;6998;53.608;9.958;2022-08-23T02:59:05;19.50;99.90
13856;DHT22;6998;53.608;9.958;2022-08-23T03:01:35;19.40;99.90
13856;DHT22;6998;53.608;9.958;2022-08-23T03:04:03;19.50;99.90
13856;DHT22;6998;53.608;9.958;2022-08-23T03:06:31;19.50;99.90
13856;DHT22;6998;53.608;9.958;2022-08-23T03:08:58;19.50;99.90
13856;DHT22;6998;53.608;9.958;2022-08-23T03:11:25;19.50;99.90
13856;DHT22;6998;53.608;9.958;2022-08-23T03:13:53;19.50;99.90
13856;DHT22;6998;53.608;9.958;2022-08-23T03:16:21;19.40;99.90
13856;DHT22;6998;53.608;9.958;2022-08-23T03:18:48;19.40;99.90
13856;DHT22;6998;53.608;9.958;2022-08-23T03:21:16;19.30;99.90
13856;DHT22;6998;53.608;9.958;2022-08-23T03:23:45;19.30;99.90
13856;DHT22;6998;53.608;9.958;2022-08-23T03:26:13;19.30;99.90
13856;DHT22;6998;53.608;9.958;2022-08-23T03:28:42;19.30;99.90
13856;DHT22;6998;53.608;9.958;2022-08-23T03:31:09;19.30;99.90
13856;DHT22;6998;53.608;9.958;2022-08-23T03:33:37;19.30;99.90
13856;DHT22;6998;53.608;9.958;2022-08-23T03:36:06;19.30;99.90
13856;DHT22;6998;53.608;9.958;2022-08-23T03:38:34;19.30;99.90
13856;DHT22;6998;53.608;9.958;2022-08-23T03:41:02;19.30;99.90
13856;DHT22;6998;53.608;9.958;2022-08-23T03:43:29;19.30;99.90
13856;DHT22;6998;53.608;9.958;2022-08-23T03:45:56;19.30;99.90
13856;DHT22;6998;53.608;9.958;2022-08-23T03:48:23;19.20;99.90
13856;DHT22;6998;53.608;9.958;2022-08-23T03:50:50;19.30;99.90
13856;DHT22;6998;53.608;9.958;2022-08-23T03:53:17;19.30;99.90
13856;DHT22;6998;53.608;9.958;2022-08-23T03:55:44;19.30;99.90
13856;DHT22;6998;53.608;9.958;2022-08-23T03:58:12;19.30;99.90
13856;DHT22;6998;53.608;9.958;2022-08-23T04:00:39;19.30;99.90
13856;DHT22;6998;53.608;9.958;2022-08-23T04:03:06;19.20;99.90
13856;DHT22;6998;53.608;9.958;2022-08-23T04:05:32;19.20;99.90
13856;DHT22;6998;53.608;9.958;2022-08-23T04:08:02;19.20;99.90
13856;DHT22;6998;53.608;9.958;2022-08-23T04:10:31;19.20;99.90
13856;DHT22;6998;53.608;9.958;2022-08-23T04:12:58;19.20;99.90
13856;DHT22;6998;53.608;9.958;2022-08-23T04:15:27;19.20;99.90
13856;DHT22;6998;53.608;9.958;2022-08-23T04:17:54;19.20;99.90
13856;DHT22;6998;53.608;9.958;2022-08-23T04:20:21;19.20;99.90
13856;DHT22;6998;53.608;9.958;2022-08-23T04:22:50;19.10;99.90
13856;DHT22;6998;53.608;9.958;2022-08-23T04:25:17;19.10;99.90
13856;DHT22;6998;53.608;9.958;2022-08-23T04:27:44;19.10;99.90
13856;DHT22;6998;53.608;9.958;2022-08-23T04:30:11;19.10;99.90
13856;DHT22;6998;53.608;9.958;2022-08-23T04:32:39;19.10;99.90
13856;DHT22;6998;53.608;9.958;2022-08-23T04:35:07;19.10;99.90
13856;DHT22;6998;53.608;9.958;2022-08-23T04:37:33;19.10;99.90
13856;DHT22;6998;53.608;9.958;2022-08-23T04:40:00;19.10;99.90
13856;DHT22;6998;53.608;9.958;2022-08-23T04:42:44;19.10;99.90
13856;DHT22;6998;53.608;9.958;2022-08-23T04:45:11;19.10;99.90
13856;DHT22;6998;53.608;9.958;2022-08-23T04:47:39;19.10;99.90
13856;DHT22;6998;53.608;9.958;2022-08-23T04:50:09;19.20;99.90
13856;DHT22;6998;53.608;9.958;2022-08-23T04:52:35;19.10;99.90
13856;DHT22;6998;53.608;9.958;2022-08-23T04:55:02;19.10;99.90
13856;DHT22;6998;53.608;9.958;2022-08-23T04:57:29;19.10;99.90
13856;DHT22;6998;53.608;9.958;2022-08-23T04:59:56;19.00;99.90
13856;DHT22;6998;53.608;9.958;2022-08-23T05:02:24;19.10;99.90
13856;DHT22;6998;53.608;9.958;2022-08-23T05:04:53;19.20;99.90
13856;DHT22;6998;53.608;9.958;2022-08-23T05:07:20;19.20;99.90
13856;DHT22;6998;53.608;9.958;2022-08-23T05:09:46;19.10;99.90
13856;DHT22;6998;53.608;9.958;2022-08-23T05:12:13;19.10;99.90
13856;DHT22;6998;53.608;9.958;2022-08-23T05:14:40;19.20;99.90
13856;DHT22;6998;53.608;9.958;2022-08-23T05:17:07;19.10;99.90
13856;DHT22;6998;53.608;9.958;2022-08-23T05:19:34;19.20;99.90
13856;DHT22;6998;53.608;9.958;2022-08-23T05:22:02;19.20;99.90
13856;DHT22;6998;53.608;9.958;2022-08-23T05:24:28;19.20;99.90
13856;DHT22;6998;53.608;9.958;2022-08-23T05:26:55;19.30;99.90
13856;DHT22;6998;53.608;9.958;2022-08-23T05:29:22;19.20;99.90
13856;DHT22;6998;53.608;9.958;2022-08-23T05:31:49;19.20;99.90
13856;DHT22;6998;53.608;9.958;2022-08-23T05:34:15;19.30;99.90
13856;DHT22;6998;53.608;9.958;2022-08-23T05:36:42;19.30;99.90
13856;DHT22;6998;53.608;9.958;2022-08-23T05:39:10;19.40;99.90
13856;DHT22;6998;53.608;9.958;2022-08-23T05:41:37;19.40;99.90
13856;DHT22;6998;53.608;9.958;2022-08-23T05:44:04;19.40;99.90
13856;DHT22;6998;53.608;9.958;2022-08-23T05:46:31;19.40;99.90
13856;DHT22;6998;53.608;9.958;2022-08-23T05:48:58;19.50;99.90
13856;DHT22;6998;53.608;9.958;2022-08-23T05:51:27;19.60;99.90
13856;DHT22;6998;53.608;9.958;2022-08-23T05:53:58;19.70;99.90
13856;DHT22;6998;53.608;9.958;2022-08-23T05:56:28;19.70;99.90
13856;DHT22;6998;53.608;9.958;2022-08-23T05:58:58;19.80;99.90
13856;DHT22;6998;53.608;9.958;2022-08-23T06:01:25;19.80;99.90
13856;DHT22;6998;53.608;9.958;2022-08-23T06:03:52;19.80;99.90
13856;DHT22;6998;53.608;9.958;2022-08-23T06:06:20;19.90;99.90
13856;DHT22;6998;53.608;9.958;2022-08-23T06:08:47;19.80;99.90
13856;DHT22;6998;53.608;9.958;2022-08-23T06:11:16;19.90;99.90
13856;DHT22;6998;53.608;9.958;2022-08-23T06:13:46;20.10;99.90
13856;DHT22;6998;53.608;9.958;2022-08-23T06:16:15;20.00;99.90
13856;DHT22;6998;53.608;9.958;2022-08-23T06:18:43;20.10;99.90
13856;DHT22;6998;53.608;9.958;2022-08-23T06:21:11;20.20;99.90
13856;DHT22;6998;53.608;9.958;2022-08-23T06:23:39;20.30;99.90
13856;DHT22;6998;53.608;9.958;2022-08-23T06:26:10;20.40;99.90
13856;DHT22;6998;53.608;9.958;2022-08-23T06:28:37;20.50;99.90
13856;DHT22;6998;53.608;9.958;2022-08-23T06:31:05;20.50;99.90
13856;DHT22;6998;53.608;9.958;2022-08-23T06:33:32;20.60;99.90
13856;DHT22;6998;53.608;9.958;2022-08-23T06:36:05;20.60;99.90
13856;DHT22;6998;53.608;9.958;2022-08-23T06:38:33;20.50;99.90
13856;DHT22;6998;53.608;9.958;2022-08-23T06:41:01;20.50;99.90
13856;DHT22;6998;53.608;9.958;2022-08-23T06:43:28;20.50;99.90
13856;DHT22;6998;53.608;9.958;2022-08-23T06:45:55;20.50;99.90
13856;DHT22;6998;53.608;9.958;2022-08-23T06:48:23;20.50;99.90
13856;DHT22;6998;53.608;9.958;2022-08-23T06:50:49;20.60;99.90
13856;DHT22;6998;53.608;9.958;2022-08-23T06:53:16;20.70;99.90
13856;DHT22;6998;53.608;9.958;2022-08-23T06:55:43;20.70;99.90
13856;DHT22;6998;53.608;9.958;2022-08-23T06:58:09;20.80;99.90
13856;DHT22;6998;53.608;9.958;2022-08-23T07:00:36;20.80;99.90
13856;DHT22;6998;53.608;9.958;2022-08-23T07:03:03;20.80;99.90
13856;DHT22;6998;53.608;9.958;2022-08-23T07:05:31;20.70;99.90
13856;DHT22;6998;53.608;9.958;2022-08-23T07:07:58;20.90;99.90
13856;DHT22;6998;53.608;9.958;2022-08-23T07:10:24;21.00;99.90
13856;DHT22;6998;53.608;9.958;2022-08-23T07:12:51;21.00;99.90
13856;DHT22;6998;53.608;9.958;2022-08-23T07:15:18;21.00;99.90
13856;DHT22;6998;53.608;9.958;2022-08-23T07:17:45;21.10;99.90
13856;DHT22;6998;53.608;9.958;2022-08-23T07:20:12;21.10;99.90
13856;DHT22;6998;53.608;9.958;2022-08-23T07:22:40;21.20;99.90
13856;DHT22;6998;53.608;9.958;2022-08-23T07:25:09;21.30;99.90
13856;DHT22;6998;53.608;9.958;2022-08-23T07:27:35;21.40;99.90
13856;DHT22;6998;53.608;9.958;2022-08-23T07:30:04;21.50;99.90
13856;DHT22;6998;53.608;9.958;2022-08-23T07:32:31;21.50;99.90
13856;DHT22;6998;53.608;9.958;2022-08-23T07:34:58;21.50;99.90
13856;DHT22;6998;53.608;9.958;2022-08-23T07:37:25;21.60;99.90
13856;DHT22;6998;53.608;9.958;2022-08-23T07:39:54;21.60;99.90
13856;DHT22;6998;53.608;9.958;2022-08-23T07:42:21;21.70;99.90
13856;DHT22;6998;53.608;9.958;2022-08-23T07:44:48;21.80;99.90
13856;DHT22;6998;53.608;9.958;2022-08-23T07:47:14;21.90;99.90
13856;DHT22;6998;53.608;9.958;2022-08-23T07:49:41;21.90;99.90
13856;DHT22;6998;53.608;9.958;2022-08-23T07:52:08;21.90;99.90
13856;DHT22;6998;53.608;9.958;2022-08-23T07:54:35;21.90;99.90
13856;DHT22;6998;53.608;9.958;2022-08-23T07:57:03;21.90;99.90
13856;DHT22;6998;53.608;9.958;2022-08-23T07:59:30;22.10;99.90
13856;DHT22;6998;53.608;9.958;2022-08-23T08:01:56;22.20;99.90
13856;DHT22;6998;53.608;9.958;2022-08-23T08:04:23;22.20;99.90
13856;DHT22;6998;53.608;9.958;2022-08-23T08:06:50;22.30;99.90
13856;DHT22;6998;53.608;9.958;2022-08-23T08:09:17;22.40;99.90
13856;DHT22;6998;53.608;9.958;2022-08-23T08:11:46;22.50;99.90
13856;DHT22;6998;53.608;9.958;2022-08-23T08:14:15;22.50;99.90
13856;DHT22;6998;53.608;9.958;2022-08-23T08:16:44;22.50;99.90
13856;DHT22;6998;53.608;9.958;2022-08-23T08:19:13;22.60;99.90
13856;DHT22;6998;53.608;9.958;2022-08-23T08:21:42;22.60;99.90
13856;DHT22;6998;53.608;9.958;2022-08-23T08:24:11;22.70;99.90
13856;DHT22;6998;53.608;9.958;2022-08-23T08:26:39;22.70;99.90
13856;DHT22;6998;53.608;9.958;2022-08-23T08:29:07;22.90;99.90
13856;DHT22;6998;53.608;9.958;2022-08-23T08:31:38;22.90;99.90
13856;DHT22;6998;53.608;9.958;2022-08-23T08:34:05;23.00;99.90
13856;DHT22;6998;53.608;9.958;2022-08-23T08:36:36;23.10;99.90
13856;DHT22;6998;53.608;9.958;2022-08-23T08:39:05;23.20;99.90
13856;DHT22;6998;53.608;9.958;2022-08-23T08:41:43;23.30;99.90
13856;DHT22;6998;53.608;9.958;2022-08-23T08:44:22;23.30;99.90
13856;DHT22;6998;53.608;9.958;2022-08-23T08:46:53;23.40;99.90
13856;DHT22;6998;53.608;9.958;2022-08-23T08:49:31;23.50;99.90
13856;DHT22;6998;53.608;9.958;2022-08-23T08:52:02;23.50;99.90
13856;DHT22;6998;53.608;9.958;2022-08-23T08:54:35;23.70;99.90
13856;DHT22;6998;53.608;9.958;2022-08-23T08:57:03;23.70;99.90
13856;DHT22;6998;53.608;9.958;2022-08-23T08:59:43;23.80;99.90
13856;DHT22;6998;53.608;9.958;2022-08-23T09:02:16;24.00;99.90
13856;DHT22;6998;53.608;9.958;2022-08-23T09:04:44;24.00;99.90
13856;DHT22;6998;53.608;9.958;2022-08-23T09:07:16;24.10;99.90
13856;DHT22;6998;53.608;9.958;2022-08-23T09:10:06;24.20;99.90
13856;DHT22;6998;53.608;9.958;2022-08-23T09:12:44;24.40;99.90
13856;DHT22;6998;53.608;9.958;2022-08-23T09:15:20;24.50;99.90
13856;DHT22;6998;53.608;9.958;2022-08-23T09:17:51;24.70;99.90
13856;DHT22;6998;53.608;9.958;2022-08-23T09:20:20;24.70;99.90
13856;DHT22;6998;53.608;9.958;2022-08-23T09:22:51;24.70;99.90
13856;DHT22;6998;53.608;9.958;2022-08-23T09:25:22;24.50;99.90
13856;DHT22;6998;53.608;9.958;2022-08-23T09:27:49;24.60;99.90
13856;DHT22;6998;53.608;9.958;2022-08-23T09:30:17;24.80;99.90
13856;DHT22;6998;53.608;9.958;2022-08-23T09:32:45;24.90;99.90
13856;DHT22;6998;53.608;9.958;2022-08-23T09:35:18;25.10;99.90
13856;DHT22;6998;53.608;9.958;2022-08-23T09:37:53;25.10;99.90
13856;DHT22;6998;53.608;9.958;2022-08-23T09:40:30;25.20;99.90
13856;DHT22;6998;53.608;9.958;2022-08-23T09:43:04;25.30;99.90
13856;DHT22;6998;53.608;9.958;2022-08-23T09:45:34;25.40;99.90
13856;DHT22;6998;53.608;9.958;2022-08-23T09:48:01;25.60;99.90
13856;DHT22;6998;53.608;9.958;2022-08-23T09:50:31;25.70;99.90
13856;DHT22;6998;53.608;9.958;2022-08-23T09:53:03;25.80;99.90
13856;DHT22;6998;53.608;9.958;2022-08-23T09:55:33;25.80;99.90
13856;DHT22;6998;53.608;9.958;2022-08-23T09:58:03;25.60;99.90
13856;DHT22;6998;53.608;9.958;2022-08-23T10:00:33;25.80;99.90
13856;DHT22;6998;53.608;9.958;2022-08-23T10:03:22;26.10;99.90
13856;DHT22;6998;53.608;9.958;2022-08-23T10:05:52;26.30;99.90
13856;DHT22;6998;53.608;9.958;2022-08-23T10:08:25;26.40;99.90
13856;DHT22;6998;53.608;9.958;2022-08-23T10:10:55;26.40;99.90
13856;DHT22;6998;53.608;9.958;2022-08-23T10:13:24;26.50;99.90
13856;DHT22;6998;53.608;9.958;2022-08-23T10:15:58;26.70;99.90
13856;DHT22;6998;53.608;9.958;2022-08-23T10:18:47;26.60;99.90
13856;DHT22;6998;53.608;9.958;2022-08-23T10:21:22;26.60;99.90
13856;DHT22;6998;53.608;9.958;2022-08-23T10:23:55;26.70;99.90
13856;DHT22;6998;53.608;9.958;2022-08-23T10:26:26;26.90;99.90
13856;DHT22;6998;53.608;9.958;2022-08-23T10:29:07;27.00;99.90
13856;DHT22;6998;53.608;9.958;2022-08-23T10:31:59;26.90;99.90
13856;DHT22;6998;53.608;9.958;2022-08-23T10:34:38;26.80;99.90
13856;DHT22;6998;53.608;9.958;2022-08-23T10:37:22;26.80;99.90
13856;DHT22;6998;53.608;9.958;2022-08-23T10:39:57;26.80;99.90
13856;DHT22;6998;53.608;9.958;2022-08-23T10:42:33;26.90;99.90
13856;DHT22;6998;53.608;9.958;2022-08-23T10:45:09;27.00;99.90
13856;DHT22;6998;53.608;9.958;2022-08-23T10:47:48;26.80;99.90
13856;DHT22;6998;53.608;9.958;2022-08-23T10:50:18;27.00;99.90
13856;DHT22;6998;53.608;9.958;2022-08-23T10:52:51;27.20;99.90
13856;DHT22;6998;53.608;9.958;2022-08-23T10:55:24;27.10;99.90
13856;DHT22;6998;53.608;9.958;2022-08-23T10:58:02;27.10;99.90
13856;DHT22;6998;53.608;9.958;2022-08-23T11:00:31;27.20;99.90
13856;DHT22;6998;53.608;9.958;2022-08-23T11:03:06;27.30;99.90
13856;DHT22;6998;53.608;9.958;2022-08-23T11:05:36;27.40;99.90
13856;DHT22;6998;53.608;9.958;2022-08-23T11:08:06;27.30;99.90
13856;DHT22;6998;53.608;9.958;2022-08-23T11:10:43;27.50;99.90
13856;DHT22;6998;53.608;9.958;2022-08-23T11:13:20;27.60;99.90
13856;DHT22;6998;53.608;9.958;2022-08-23T11:15:55;27.70;99.90
13856;DHT22;6998;53.608;9.958;2022-08-23T11:18:39;27.80;99.90
13856;DHT22;6998;53.608;9.958;2022-08-23T11:24:33;28.00;99.90
13856;DHT22;6998;53.608;9.958;2022-08-23T11:27:28;27.90;99.90
13856;DHT22;6998;53.608;9.958;2022-08-23T11:29:56;27.80;99.90
13856;DHT22;6998;53.608;9.958;2022-08-23T11:32:33;27.90;99.90
13856;DHT22;6998;53.608;9.958;2022-08-23T11:35:08;28.20;99.90
13856;DHT22;6998;53.608;9.958;2022-08-23T11:37:49;28.30;99.90
13856;DHT22;6998;53.608;9.958;2022-08-23T11:43:35;28.30;99.90
13856;DHT22;6998;53.608;9.958;2022-08-23T11:46:32;28.40;99.90
13856;DHT22;6998;53.608;9.958;2022-08-23T11:52:15;28.30;99.90
13856;DHT22;6998;53.608;9.958;2022-08-23T11:55:00;28.20;99.50
13856;DHT22;6998;53.608;9.958;2022-08-23T11:57:43;28.10;99.90
13856;DHT22;6998;53.608;9.958;2022-08-23T12:00:18;27.90;99.90
13856;DHT22;6998;53.608;9.958;2022-08-23T12:02:57;27.80;99.90
13856;DHT22;6998;53.608;9.958;2022-08-23T12:05:41;27.70;99.90
13856;DHT22;6998;53.608;9.958;2022-08-23T12:08:31;27.90;99.90
13856;DHT22;6998;53.608;9.958;2022-08-23T12:11:07;28.00;99.60
13856;DHT22;6998;53.608;9.958;2022-08-23T12:13:53;28.10;99.90
13856;DHT22;6998;53.608;9.958;2022-08-23T12:16:32;28.40;99.30
13856;DHT22;6998;53.608;9.958;2022-08-23T12:19:02;28.70;98.40
13856;DHT22;6998;53.608;9.958;2022-08-23T12:21:39;28.80;98.00
13856;DHT22;6998;53.608;9.958;2022-08-23T12:24:16;28.80;99.00
13856;DHT22;6998;53.608;9.958;2022-08-23T12:26:48;28.80;99.60
13856;DHT22;6998;53.608;9.958;2022-08-23T12:29:28;29.00;99.20
13856;DHT22;6998;53.608;9.958;2022-08-23T12:32:05;29.10;96.60
13856;DHT22;6998;53.608;9.958;2022-08-23T12:34:42;29.20;96.80
13856;DHT22;6998;53.608;9.958;2022-08-23T12:37:18;29.20;96.70
13856;DHT22;6998;53.608;9.958;2022-08-23T12:39:50;29.20;96.90
13856;DHT22;6998;53.608;9.958;2022-08-23T12:42:25;29.10;96.80
13856;DHT22;6998;53.608;9.958;2022-08-23T12:45:02;29.00;96.30
13856;DHT22;6998;53.608;9.958;2022-08-23T12:47:31;29.10;97.50
13856;DHT22;6998;53.608;9.958;2022-08-23T12:50:00;29.10;96.60
13856;DHT22;6998;53.608;9.958;2022-08-23T12:52:29;29.20;95.00
13856;DHT22;6998;53.608;9.958;2022-08-23T12:54:56;29.10;94.00
13856;DHT22;6998;53.608;9.958;2022-08-23T12:57:31;29.00;94.00
13856;DHT22;6998;53.608;9.958;2022-08-23T13:00:15;29.00;95.90
13856;DHT22;6998;53.608;9.958;2022-08-23T13:02:48;29.10;96.10
13856;DHT22;6998;53.608;9.958;2022-08-23T13:05:21;29.00;95.80
13856;DHT22;6998;53.608;9.958;2022-08-23T13:07:50;29.20;96.10
13856;DHT22;6998;53.608;9.958;2022-08-23T13:10:17;29.20;95.40
13856;DHT22;6998;53.608;9.958;2022-08-23T13:12:44;29.30;96.10
13856;DHT22;6998;53.608;9.958;2022-08-23T13:15:11;29.50;94.90
13856;DHT22;6998;53.608;9.958;2022-08-23T13:17:38;29.40;94.40
13856;DHT22;6998;53.608;9.958;2022-08-23T13:20:19;29.40;94.50
13856;DHT22;6998;53.608;9.958;2022-08-23T13:22:59;29.50;93.90
13856;DHT22;6998;53.608;9.958;2022-08-23T13:25:29;29.70;93.40
13856;DHT22;6998;53.608;9.958;2022-08-23T13:27:58;29.40;93.50
13856;DHT22;6998;53.608;9.958;2022-08-23T13:30:27;29.50;93.40
13856;DHT22;6998;53.608;9.958;2022-08-23T13:33:16;29.50;94.30
13856;DHT22;6998;53.608;9.958;2022-08-23T13:35:45;29.80;94.50
13856;DHT22;6998;53.608;9.958;2022-08-23T13:38:18;29.60;94.70
13856;DHT22;6998;53.608;9.958;2022-08-23T13:40:57;29.70;93.90
13856;DHT22;6998;53.608;9.958;2022-08-23T13:43:29;29.60;91.80
13856;DHT22;6998;53.608;9.958;2022-08-23T13:45:58;29.60;92.70
13856;DHT22;6998;53.608;9.958;2022-08-23T13:48:29;29.30;93.10
13856;DHT22;6998;53.608;9.958;2022-08-23T13:51:25;29.60;93.60
13856;DHT22;6998;53.608;9.958;2022-08-23T13:53:53;29.70;92.60
13856;DHT22;6998;53.608;9.958;2022-08-23T13:56:22;29.70;91.90
13856;DHT22;6998;53.608;9.958;2022-08-23T13:58:54;29.70;91.00
13856;DHT22;6998;53.608;9.958;2022-08-23T14:01:23;29.40;91.20
13856;DHT22;6998;53.608;9.958;2022-08-23T14:03:49;29.50;92.50
13856;DHT22;6998;53.608;9.958;2022-08-23T14:06:16;29.40;92.20
13856;DHT22;6998;53.608;9.958;2022-08-23T14:08:44;29.40;93.00
13856;DHT22;6998;53.608;9.958;2022-08-23T14:11:14;29.30;92.40
13856;DHT22;6998;53.608;9.958;2022-08-23T14:13:44;29.10;92.90
13856;DHT22;6998;53.608;9.958;2022-08-23T14:16:15;29.10;92.60
13856;DHT22;6998;53.608;9.958;2022-08-23T14:18:43;29.30;92.80
13856;DHT22;6998;53.608;9.958;2022-08-23T14:21:10;29.20;92.80
13856;DHT22;6998;53.608;9.958;2022-08-23T14:23:36;29.40;92.30
13856;DHT22;6998;53.608;9.958;2022-08-23T14:26:05;29.50;92.30
13856;DHT22;6998;53.608;9.958;2022-08-23T14:28:32;29.60;92.40
13856;DHT22;6998;53.608;9.958;2022-08-23T14:30:59;29.60;92.30
13856;DHT22;6998;53.608;9.958;2022-08-23T14:33:26;29.30;93.00
13856;DHT22;6998;53.608;9.958;2022-08-23T14:35:53;29.40;93.90
13856;DHT22;6998;53.608;9.958;2022-08-23T14:38:21;29.70;92.40
13856;DHT22;6998;53.608;9.958;2022-08-23T14:40:51;29.60;92.70
13856;DHT22;6998;53.608;9.958;2022-08-23T14:43:21;29.60;91.60
13856;DHT22;6998;53.608;9.958;2022-08-23T14:45:51;29.40;91.70
13856;DHT22;6998;53.608;9.958;2022-08-23T14:48:18;29.30;92.20
13856;DHT22;6998;53.608;9.958;2022-08-23T14:50:48;29.10;91.70
13856;DHT22;6998;53.608;9.958;2022-08-23T14:53:17;29.00;92.20
13856;DHT22;6998;53.608;9.958;2022-08-23T14:55:44;29.00;92.10
13856;DHT22;6998;53.608;9.958;2022-08-23T14:58:11;29.10;92.60
13856;DHT22;6998;53.608;9.958;2022-08-23T15:00:39;29.10;93.50
13856;DHT22;6998;53.608;9.958;2022-08-23T15:03:07;29.00;92.20
13856;DHT22;6998;53.608;9.958;2022-08-23T15:05:35;29.10;92.30
13856;DHT22;6998;53.608;9.958;2022-08-23T15:08:02;29.30;92.10
13856;DHT22;6998;53.608;9.958;2022-08-23T15:10:29;29.40;92.20
13856;DHT22;6998;53.608;9.958;2022-08-23T15:12:56;29.30;92.00
13856;DHT22;6998;53.608;9.958;2022-08-23T15:15:23;29.10;92.20
13856;DHT22;6998;53.608;9.958;2022-08-23T15:17:52;29.00;91.50
13856;DHT22;6998;53.608;9.958;2022-08-23T15:20:22;28.90;92.30
13856;DHT22;6998;53.608;9.958;2022-08-23T15:22:48;28.90;92.10
13856;DHT22;6998;53.608;9.958;2022-08-23T15:25:16;28.90;91.70
13856;DHT22;6998;53.608;9.958;2022-08-23T15:27:44;28.80;91.50
13856;DHT22;6998;53.608;9.958;2022-08-23T15:30:14;28.80;92.40
13856;DHT22;6998;53.608;9.958;2022-08-23T15:32:41;29.00;92.20
13856;DHT22;6998;53.608;9.958;2022-08-23T15:35:09;29.00;91.10
13856;DHT22;6998;53.608;9.958;2022-08-23T15:37:37;29.20;92.80
13856;DHT22;6998;53.608;9.958;2022-08-23T15:40:05;29.30;91.00
13856;DHT22;6998;53.608;9.958;2022-08-23T15:42:33;29.30;91.80
13856;DHT22;6998;53.608;9.958;2022-08-23T15:45:00;29.10;91.10
13856;DHT22;6998;53.608;9.958;2022-08-23T15:47:29;29.10;92.00
13856;DHT22;6998;53.608;9.958;2022-08-23T15:49:57;28.90;91.80
13856;DHT22;6998;53.608;9.958;2022-08-23T15:52:26;28.90;92.10
13856;DHT22;6998;53.608;9.958;2022-08-23T15:54:53;29.00;92.00
13856;DHT22;6998;53.608;9.958;2022-08-23T15:57:21;29.20;92.80
13856;DHT22;6998;53.608;9.958;2022-08-23T15:59:49;29.30;91.00
13856;DHT22;6998;53.608;9.958;2022-08-23T16:02:16;29.40;91.10
13856;DHT22;6998;53.608;9.958;2022-08-23T16:04:42;29.50;90.90
13856;DHT22;6998;53.608;9.958;2022-08-23T16:07:13;29.50;91.00
13856;DHT22;6998;53.608;9.958;2022-08-23T16:09:41;29.40;91.50
13856;DHT22;6998;53.608;9.958;2022-08-23T16:12:09;29.30;91.30
13856;DHT22;6998;53.608;9.958;2022-08-23T16:14:36;29.30;90.70